createdAt,value
2023-12-19T00:00:31.688Z,102397.72
2023-12-19T00:03:01.023Z,102408.56
2023-12-19T00:05:28.901Z,102401.63
2023-12-19T00:07:56.920Z,102390.00
2023-12-19T00:10:24.856Z,102383.81
2023-12-19T00:12:52.855Z,102375.28
2023-12-19T00:15:23.813Z,102365.63
2023-12-19T00:17:52.076Z,102374.13
2023-12-19T00:20:21.362Z,102367.56
2023-12-19T00:22:49.204Z,102364.47
2023-12-19T00:25:17.399Z,102360.97
2023-12-19T00:27:45.342Z,102362.13
2023-12-19T00:30:14.120Z,102347.44
2023-12-19T00:32:42.394Z,102345.09
2023-12-19T00:35:10.743Z,102339.66
2023-12-19T00:37:40.029Z,102332.34
2023-12-19T00:40:09.681Z,102324.22
2023-12-19T00:42:37.585Z,102325.34
2023-12-19T00:45:06.269Z,102318.00
2023-12-19T00:47:34.676Z,102318.78
2023-12-19T00:50:03.515Z,102335.81
2023-12-19T00:52:31.979Z,102316.06
2023-12-19T00:55:01.255Z,102325.75
2023-12-19T00:57:29.127Z,102324.59
2023-12-19T00:59:57.067Z,102321.09
2023-12-19T01:02:25.290Z,102320.69
2023-12-19T01:04:53.225Z,102309.88
2023-12-19T01:07:21.077Z,102297.13
2023-12-19T01:09:49.043Z,102292.06
2023-12-19T01:12:19.455Z,102286.66
2023-12-19T01:14:47.632Z,102290.91
2023-12-19T01:17:16.017Z,102289.34
2023-12-19T01:19:43.916Z,102284.31
2023-12-19T01:22:11.853Z,102299.41
2023-12-19T01:24:39.672Z,102297.50
2023-12-19T01:27:07.535Z,102286.66
2023-12-19T01:29:36.836Z,102287.44
2023-12-19T01:32:05.016Z,102278.53
2023-12-19T01:34:34.078Z,102276.97
2023-12-19T01:37:02.027Z,102273.50
2023-12-19T01:39:29.892Z,102278.53
2023-12-19T01:41:58.020Z,102294.78
2023-12-19T01:44:26.637Z,102283.94
2023-12-19T01:46:55.870Z,102272.72
2023-12-19T01:49:24.145Z,102272.31
2023-12-19T01:51:52.684Z,102275.03
2023-12-19T01:54:23.070Z,102272.31
2023-12-19T01:56:51.228Z,102256.06
2023-12-19T01:59:19.121Z,102258.00
2023-12-19T02:01:47.085Z,102256.06
2023-12-19T02:04:16.397Z,102252.97
2023-12-19T02:06:44.440Z,102256.06
2023-12-19T02:09:12.756Z,102254.13
2023-12-19T02:11:40.671Z,102251.44
2023-12-19T02:14:08.578Z,102266.50
2023-12-19T02:16:36.447Z,102241.34
2023-12-19T02:19:05.469Z,102248.72
2023-12-19T02:21:34.842Z,102252.19
2023-12-19T02:24:04.228Z,102235.94
2023-12-19T02:26:33.470Z,102235.94
2023-12-19T02:29:01.334Z,102212.69
2023-12-19T02:31:29.241Z,102208.44
2023-12-19T02:33:57.245Z,102210.38
2023-12-19T02:36:25.362Z,102216.59
2023-12-19T02:38:53.215Z,102207.66
2023-12-19T02:41:22.472Z,102211.94
2023-12-19T02:43:54.463Z,102195.66
2023-12-19T02:46:23.548Z,102195.66
2023-12-19T02:48:51.565Z,102171.25
2023-12-19T02:51:20.529Z,102171.25
2023-12-19T02:53:48.585Z,102191.78
2023-12-19T02:56:16.455Z,102168.13
2023-12-19T02:58:45.739Z,102162.34
2023-12-19T03:01:13.751Z,102169.28
2023-12-19T03:03:42.295Z,102158.84
2023-12-19T03:06:10.558Z,102159.22
2023-12-19T03:08:38.938Z,102152.66
2023-12-19T03:11:06.922Z,102145.28
2023-12-19T03:13:34.794Z,102142.94
2023-12-19T03:16:04.080Z,102142.19
2023-12-19T03:18:32.081Z,102133.66
2023-12-19T03:20:59.980Z,102135.59
2023-12-19T03:23:29.098Z,102122.41
2023-12-19T03:25:56.914Z,102122.81
2023-12-19T03:28:25.912Z,102123.97
2023-12-19T03:30:53.872Z,102117.38
2023-12-19T03:33:23.243Z,102114.28
2023-12-19T03:35:51.123Z,102120.47
2023-12-19T03:38:19.049Z,102108.81
2023-12-19T03:40:46.906Z,102116.94
2023-12-19T03:43:15.121Z,102089.84
2023-12-19T03:45:43.022Z,102090.97
2023-12-19T03:48:10.904Z,102095.22
2023-12-19T03:50:40.133Z,102095.59
2023-12-19T03:53:07.955Z,102078.19
2023-12-19T03:55:35.773Z,102082.44
2023-12-19T03:58:03.706Z,102080.47
2023-12-19T04:00:31.662Z,102071.19
2023-12-19T04:02:59.558Z,102067.72
2023-12-19T04:05:27.444Z,102060.72
2023-12-19T04:07:56.629Z,102054.53
2023-12-19T04:10:24.482Z,102044.47
2023-12-19T04:12:52.290Z,102046.41
2023-12-19T04:15:20.244Z,102046.78
2023-12-19T04:17:48.666Z,102049.50
2023-12-19T04:20:16.712Z,102041.38
2023-12-19T04:22:45.335Z,102046.78
2023-12-19T04:25:14.835Z,102042.13
2023-12-19T04:27:42.696Z,102036.69
2023-12-19T04:30:11.390Z,102025.47
2023-12-19T04:32:39.282Z,102019.28
2023-12-19T04:35:07.521Z,102020.41
2023-12-19T04:37:35.369Z,102009.94
2023-12-19T04:40:04.291Z,102012.66
2023-12-19T04:42:33.916Z,102005.28
2023-12-19T04:45:01.837Z,101998.66
2023-12-19T04:47:30.079Z,102000.97
2023-12-19T04:49:58.025Z,102007.91
2023-12-19T04:52:25.933Z,102003.28
2023-12-19T04:54:53.853Z,102011.00
2023-12-19T04:57:21.892Z,102002.47
2023-12-19T04:59:51.221Z,102003.22
2023-12-19T05:02:19.065Z,101993.13
2023-12-19T05:04:46.931Z,101998.19
2023-12-19T05:07:14.751Z,102000.50
2023-12-19T05:09:42.896Z,101995.84
2023-12-19T05:12:10.757Z,101989.66
2023-12-19T05:14:39.326Z,101988.84
2023-12-19T05:17:08.575Z,101983.44
2023-12-19T05:19:43.884Z,101991.19
2023-12-19T05:22:17.876Z,101976.84
2023-12-19T05:24:45.778Z,101978.78
2023-12-19T05:27:13.660Z,101985.38
2023-12-19T05:29:42.269Z,101974.13
2023-12-19T05:32:11.489Z,101976.84
2023-12-19T05:34:39.480Z,101973.38
2023-12-19T05:37:07.434Z,101970.25
2023-12-19T05:39:35.317Z,101965.56
2023-12-19T05:42:03.213Z,101965.19
2023-12-19T05:44:31.068Z,101965.94
2023-12-19T05:46:58.887Z,101968.28
2023-12-19T05:49:28.222Z,101967.88
2023-12-19T05:51:56.146Z,101960.88
2023-12-19T05:54:24.202Z,101966.69
2023-12-19T05:56:52.087Z,101956.59
2023-12-19T05:59:19.939Z,101952.28
2023-12-19T06:01:47.844Z,101953.44
2023-12-19T06:04:16.222Z,101952.25
2023-12-19T06:06:45.765Z,101955.34
2023-12-19T06:09:14.194Z,101944.44
2023-12-19T06:11:42.179Z,101939.41
2023-12-19T06:14:10.547Z,101937.06
2023-12-19T06:16:38.518Z,101930.03
2023-12-19T06:19:06.767Z,101925.38
2023-12-19T06:21:34.821Z,101918.38
2023-12-19T06:24:05.022Z,101920.69
2023-12-19T06:26:33.118Z,101924.53
2023-12-19T06:29:01.480Z,101919.09
2023-12-19T06:31:29.476Z,101912.50
2023-12-19T06:33:57.750Z,101918.69
2023-12-19T06:36:30.310Z,101904.34
2023-12-19T06:38:58.190Z,101915.97
2023-12-19T06:41:27.374Z,101911.34
2023-12-19T06:43:55.253Z,101902.00
2023-12-19T06:46:23.155Z,101901.22
2023-12-19T06:48:51.052Z,101888.44
2023-12-19T06:51:24.873Z,101898.88
2023-12-19T06:53:53.773Z,101898.13
2023-12-19T06:56:21.869Z,101890.75
2023-12-19T06:58:51.065Z,101892.28
2023-12-19T07:01:18.975Z,101896.94
2023-12-19T07:03:46.890Z,101893.03
2023-12-19T07:06:16.404Z,101881.41
2023-12-19T07:08:46.917Z,101874.03
2023-12-19T07:11:16.491Z,101881.00
2023-12-19T07:13:44.409Z,101876.34
2023-12-19T07:16:18.695Z,101876.72
2023-12-19T07:18:47.085Z,101880.97
2023-12-19T07:21:23.222Z,101893.38
2023-12-19T07:23:51.779Z,101882.88
2023-12-19T07:26:24.138Z,101883.66
2023-12-19T07:28:53.138Z,101884.00
2023-12-19T07:31:24.054Z,101877.38
2023-12-19T07:33:54.118Z,101877.75
2023-12-19T07:36:22.449Z,101881.19
2023-12-19T07:38:50.744Z,101882.34
2023-12-19T07:41:18.565Z,101869.50
2023-12-19T07:43:46.633Z,101874.19
2023-12-19T07:46:15.664Z,101871.47
2023-12-19T07:48:45.247Z,101873.00
2023-12-19T07:51:17.605Z,101864.84
2023-12-19T07:53:45.575Z,101874.94
2023-12-19T07:56:13.676Z,101858.66
2023-12-19T07:58:41.719Z,101864.50
2023-12-19T08:01:12.842Z,101870.72
2023-12-19T08:03:42.950Z,101868.38
2023-12-19T08:06:12.304Z,101849.38
2023-12-19T08:08:40.299Z,101854.81
2023-12-19T08:11:08.371Z,101859.47
2023-12-19T08:13:36.587Z,101847.84
2023-12-19T08:16:06.285Z,101860.25
2023-12-19T08:18:34.936Z,101852.84
2023-12-19T08:21:04.838Z,101848.63
2023-12-19T08:23:34.135Z,101855.19
2023-12-19T08:26:01.982Z,101840.84
2023-12-19T08:28:29.884Z,101838.88
2023-12-19T08:30:57.796Z,101828.78
2023-12-19T08:33:25.974Z,101825.66
2023-12-19T08:35:53.871Z,101828.38
2023-12-19T08:38:21.682Z,101830.66
2023-12-19T08:40:50.985Z,101838.81
2023-12-19T08:43:21.020Z,101837.66
2023-12-19T08:45:49.690Z,101836.09
2023-12-19T08:48:18.876Z,101826.78
2023-12-19T08:50:47.110Z,101836.47
2023-12-19T08:53:15.077Z,101825.19
2023-12-19T08:55:47.429Z,101816.28
2023-12-19T08:58:16.900Z,101824.44
2023-12-19T09:00:45.020Z,101815.09
2023-12-19T09:03:12.972Z,101825.56
2023-12-19T09:05:40.848Z,101808.50
2023-12-19T09:08:09.235Z,101817.41
2023-12-19T09:10:37.126Z,101814.31
2023-12-19T09:13:06.249Z,101820.13
2023-12-19T09:15:36.408Z,101812.75
2023-12-19T09:18:05.091Z,101810.78
2023-12-19T09:20:32.956Z,101804.59
2023-12-19T09:23:01.875Z,101804.59
2023-12-19T09:25:30.439Z,101804.19
2023-12-19T09:27:58.461Z,101804.19
2023-12-19T09:30:26.692Z,101797.56
2023-12-19T09:32:55.995Z,101790.97
2023-12-19T09:35:24.026Z,101797.19
2023-12-19T09:37:51.918Z,101798.31
2023-12-19T09:40:20.869Z,101796.78
2023-12-19T09:42:49.446Z,101792.88
2023-12-19T09:45:17.909Z,101788.19
2023-12-19T09:47:55.144Z,101776.56
2023-12-19T09:50:27.472Z,101778.09
2023-12-19T09:52:58.673Z,101780.41
2023-12-19T09:55:28.881Z,101779.22
2023-12-19T09:57:58.961Z,101774.22
2023-12-19T10:00:30.300Z,101773.03
2023-12-19T10:02:58.318Z,101770.66
2023-12-19T10:05:27.819Z,101755.91
2023-12-19T10:07:58.150Z,101763.28
2023-12-19T10:10:53.271Z,101761.75
2023-12-19T10:13:27.607Z,101753.19
2023-12-19T10:16:29.258Z,101751.66
2023-12-19T10:18:55.426Z,101753.19
2023-12-19T10:21:26.129Z,101756.25
2023-12-19T10:23:54.066Z,101752.78
2023-12-19T10:26:29.666Z,101736.91
2023-12-19T10:28:58.761Z,101732.22
2023-12-19T10:31:26.720Z,101730.28
2023-12-19T10:33:57.329Z,101734.19
2023-12-19T10:36:28.548Z,101719.81
2023-12-19T10:38:58.265Z,101720.59
2023-12-19T10:41:27.725Z,101698.88
2023-12-19T10:43:57.527Z,101716.34
2023-12-19T10:46:26.962Z,101686.84
2023-12-19T10:48:55.900Z,101695.78
2023-12-19T10:51:33.900Z,101688.81
2023-12-19T10:54:09.505Z,101677.59
2023-12-19T10:56:48.103Z,101676.81
2023-12-19T10:59:26.261Z,101668.31
2023-12-19T11:01:58.774Z,101682.69
2023-12-19T11:04:30.898Z,101677.59
2023-12-19T11:07:05.250Z,101661.66
2023-12-19T11:09:36.055Z,101667.84
2023-12-19T11:12:04.702Z,101663.19
2023-12-19T11:14:32.591Z,101660.06
2023-12-19T11:17:09.711Z,101651.91
2023-12-19T11:19:47.189Z,101648.03
2023-12-19T11:22:23.588Z,101646.06
2023-12-19T11:25:02.787Z,101637.50
2023-12-19T11:27:37.862Z,101635.56
2023-12-19T11:30:06.999Z,101630.88
2023-12-19T11:32:44.577Z,101625.44
2023-12-19T11:35:14.956Z,101619.59
2023-12-19T11:37:46.324Z,101619.97
2023-12-19T11:40:51.334Z,101623.44
2023-12-19T11:43:54.550Z,101615.28
2023-12-19T11:46:24.441Z,101610.63
2023-12-19T11:48:53.295Z,101608.66
2023-12-19T11:51:47.837Z,101607.50
2023-12-19T11:54:17.172Z,101602.41
2023-12-19T11:56:46.489Z,101579.88
2023-12-19T11:59:16.761Z,101591.88
2023-12-19T12:01:45.740Z,101586.88
2023-12-19T12:04:14.321Z,101570.13
2023-12-19T12:06:43.319Z,101560.06
2023-12-19T12:09:11.624Z,101560.81
2023-12-19T12:11:52.967Z,101567.00
2023-12-19T12:14:21.839Z,101566.25
2023-12-19T12:16:49.858Z,101551.47
2023-12-19T12:19:22.370Z,101553.00
2023-12-19T12:21:52.416Z,101545.63
2023-12-19T12:24:31.422Z,101534.00
2023-12-19T12:27:12.289Z,101526.59
2023-12-19T12:29:40.674Z,101531.63
2023-12-19T12:32:09.781Z,101531.63
2023-12-19T12:34:37.811Z,101530.44
2023-12-19T12:37:06.199Z,101517.59
2023-12-19T12:39:35.537Z,101519.56
2023-12-19T12:42:05.018Z,101513.72
2023-12-19T12:44:34.490Z,101517.94
2023-12-19T12:47:02.379Z,101511.75
2023-12-19T12:49:32.180Z,101512.16
2023-12-19T12:52:01.479Z,101509.03
2023-12-19T12:54:30.094Z,101499.78
2023-12-19T12:56:58.175Z,101501.31
2023-12-19T12:59:26.574Z,101512.16
2023-12-19T13:01:56.462Z,101501.31
2023-12-19T13:04:25.037Z,101503.25
2023-12-19T13:06:52.975Z,101504.81
2023-12-19T13:09:22.076Z,101498.59
2023-12-19T13:11:52.002Z,101491.22
2023-12-19T13:14:20.095Z,101493.50
2023-12-19T13:16:47.995Z,101496.22
2023-12-19T13:19:19.046Z,101496.22
2023-12-19T13:21:47.479Z,101502.00
2023-12-19T13:24:15.924Z,101489.59
2023-12-19T13:26:43.773Z,101497.31
2023-12-19T13:29:11.719Z,101496.91
2023-12-19T13:31:40.006Z,101494.19
2023-12-19T13:34:08.047Z,101497.66
2023-12-19T13:36:41.753Z,101503.88
2023-12-19T13:39:13.273Z,101488.34
2023-12-19T13:41:42.564Z,101482.13
2023-12-19T13:44:10.591Z,101490.28
2023-12-19T13:46:38.433Z,101484.84
2023-12-19T13:49:06.513Z,101475.53
2023-12-19T13:51:35.102Z,101479.00
2023-12-19T13:54:04.439Z,101484.03
2023-12-19T13:56:32.399Z,101472.38
2023-12-19T13:59:00.910Z,101476.63
2023-12-19T14:01:28.872Z,101473.91
2023-12-19T14:03:57.056Z,101463.03
2023-12-19T14:06:25.075Z,101469.22
2023-12-19T14:08:52.937Z,101467.72
2023-12-19T14:11:22.135Z,101466.50
2023-12-19T14:13:49.991Z,101469.22
2023-12-19T14:16:17.943Z,101466.94
2023-12-19T14:18:49.206Z,101472.72
2023-12-19T14:21:18.061Z,101466.16
2023-12-19T14:23:46.061Z,101465.34
2023-12-19T14:26:14.053Z,101469.59
2023-12-19T14:28:43.275Z,101466.88
2023-12-19T14:31:15.572Z,101457.50
2023-12-19T14:33:43.892Z,101463.72
2023-12-19T14:36:12.072Z,101464.91
2023-12-19T14:38:41.673Z,101459.06
2023-12-19T14:41:09.910Z,101450.91
2023-12-19T14:43:38.616Z,101455.59
2023-12-19T14:46:07.913Z,101443.84
2023-12-19T14:48:35.981Z,101436.47
2023-12-19T14:51:05.809Z,101440.72
2023-12-19T14:53:33.868Z,101434.09
2023-12-19T14:56:01.877Z,101440.63
2023-12-19T14:58:29.940Z,101436.41
2023-12-19T15:00:57.895Z,101439.88
2023-12-19T15:03:28.415Z,101449.53
2023-12-19T15:05:56.313Z,101452.59
2023-12-19T15:08:24.131Z,101462.31
2023-12-19T15:10:53.326Z,101449.06
2023-12-19T15:13:21.511Z,101454.06
2023-12-19T15:15:49.449Z,101449.38
2023-12-19T15:18:23.404Z,101452.09
2023-12-19T15:20:59.935Z,101456.03
2023-12-19T15:23:27.824Z,101454.81
2023-12-19T15:25:55.723Z,101457.13
2023-12-19T15:28:23.638Z,101452.78
2023-12-19T15:30:51.719Z,101455.50
2023-12-19T15:33:19.859Z,101458.97
2023-12-19T15:35:48.533Z,101453.56
2023-12-19T15:38:17.749Z,101460.53
2023-12-19T15:40:46.532Z,101454.34
2023-12-19T15:43:25.695Z,101457.06
2023-12-19T15:46:07.147Z,101455.84
2023-12-19T15:48:35.385Z,101461.28
2023-12-19T15:51:03.387Z,101451.19
2023-12-19T15:53:32.592Z,101454.69
2023-12-19T15:56:00.446Z,101461.28
2023-12-19T15:58:28.477Z,101458.56
2023-12-19T16:00:56.801Z,101467.06
2023-12-19T16:03:24.837Z,101464.00
2023-12-19T16:05:52.820Z,101453.91
2023-12-19T16:08:20.980Z,101444.56
2023-12-19T16:10:50.178Z,101453.47
2023-12-19T16:13:18.061Z,101439.88
2023-12-19T16:15:45.987Z,101441.41
2023-12-19T16:18:14.046Z,101444.13
2023-12-19T16:20:41.896Z,101449.91
2023-12-19T16:23:09.737Z,101443.72
2023-12-19T16:25:37.585Z,101443.72
2023-12-19T16:28:11.594Z,101429.69
2023-12-19T16:30:40.071Z,101426.97
2023-12-19T16:33:07.974Z,101431.97
2023-12-19T16:35:35.853Z,101433.19
2023-12-19T16:38:05.546Z,101428.91
2023-12-19T16:40:33.466Z,101437.06
2023-12-19T16:43:01.338Z,101442.50
2023-12-19T16:45:30.657Z,101437.06
2023-12-19T16:47:58.650Z,101437.84
2023-12-19T16:50:26.718Z,101447.19
2023-12-19T16:52:54.692Z,101458.06
2023-12-19T16:55:22.602Z,101449.91
2023-12-19T16:57:50.471Z,101444.13
2023-12-19T17:00:19.202Z,101442.59
2023-12-19T17:02:48.878Z,101439.03
2023-12-19T17:05:17.377Z,101435.13
2023-12-19T17:07:45.300Z,101435.91
2023-12-19T17:10:13.197Z,101440.13
2023-12-19T17:12:41.165Z,101431.97
2023-12-19T17:15:10.449Z,101449.06
2023-12-19T17:17:38.291Z,101447.13
2023-12-19T17:20:08.904Z,101447.13
2023-12-19T17:22:36.754Z,101449.06
2023-12-19T17:25:05.645Z,101453.31
2023-12-19T17:27:35.901Z,101459.94
2023-12-19T17:30:06.442Z,101450.19
2023-12-19T17:32:36.442Z,101441.22
2023-12-19T17:35:07.513Z,101447.47
2023-12-19T17:37:36.981Z,101438.84
2023-12-19T17:40:10.175Z,101441.59
2023-12-19T17:42:38.932Z,101437.69
2023-12-19T17:45:08.596Z,101440.41
2023-12-19T17:47:36.578Z,101452.47
2023-12-19T17:50:04.840Z,101455.97
2023-12-19T17:52:32.687Z,101456.72
2023-12-19T17:55:01.997Z,101458.69
2023-12-19T17:57:29.866Z,101466.06
2023-12-19T17:59:57.711Z,101452.47
2023-12-19T18:02:25.547Z,101466.06
2023-12-19T18:04:53.412Z,101458.69
2023-12-19T18:07:21.360Z,101457.47
2023-12-19T18:09:49.246Z,101460.19
2023-12-19T18:12:18.496Z,101452.81
2023-12-19T18:14:46.342Z,101446.59
2023-12-19T18:17:14.168Z,101454.34
2023-12-19T18:19:42.156Z,101448.91
2023-12-19T18:22:10.226Z,101448.47
2023-12-19T18:24:38.208Z,101447.72
2023-12-19T18:27:07.507Z,101449.25
2023-12-19T18:29:36.739Z,101451.19
2023-12-19T18:32:05.073Z,101455.09
2023-12-19T18:34:33.168Z,101456.63
2023-12-19T18:37:01.217Z,101464.03
2023-12-19T18:39:29.091Z,101465.97
2023-12-19T18:41:56.939Z,101464.78
2023-12-19T18:44:24.846Z,101460.13
2023-12-19T18:46:54.036Z,101455.88
2023-12-19T18:49:22.687Z,101457.41
2023-12-19T18:51:50.606Z,101471.41
2023-12-19T18:54:18.467Z,101473.38
2023-12-19T18:56:46.315Z,101461.72
2023-12-19T18:59:14.192Z,101461.41
2023-12-19T19:01:43.871Z,101459.44
2023-12-19T19:04:13.173Z,101460.63
2023-12-19T19:06:43.671Z,101457.91
2023-12-19T19:09:12.543Z,101463.78
2023-12-19T19:11:40.851Z,101475.81
2023-12-19T19:14:08.669Z,101477.03
2023-12-19T19:16:36.818Z,101478.53
2023-12-19T19:19:04.740Z,101487.47
2023-12-19T19:21:34.725Z,101481.72
2023-12-19T19:24:02.618Z,101488.31
2023-12-19T19:26:30.484Z,101486.34
2023-12-19T19:29:00.505Z,101487.91
2023-12-19T19:31:28.457Z,101486.34
2023-12-19T19:33:56.591Z,101485.25
2023-12-19T19:36:25.738Z,101486.88
2023-12-19T19:38:54.922Z,101490.78
2023-12-19T19:41:24.358Z,101504.78
2023-12-19T19:43:55.089Z,101502.50
2023-12-19T19:46:23.073Z,101499.78
2023-12-19T19:48:52.593Z,101497.06
2023-12-19T19:51:21.881Z,101488.13
2023-12-19T19:53:49.837Z,101482.34
2023-12-19T19:56:19.021Z,101490.50
2023-12-19T19:58:46.884Z,101492.06
2023-12-19T20:01:16.567Z,101495.59
2023-12-19T20:03:45.338Z,101502.22
2023-12-19T20:06:13.679Z,101504.19
2023-12-19T20:08:41.669Z,101498.81
2023-12-19T20:11:09.603Z,101503.91
2023-12-19T20:13:38.751Z,101497.72
2023-12-19T20:16:07.349Z,101493.47
2023-12-19T20:18:35.262Z,101493.13
2023-12-19T20:21:03.232Z,101504.41
2023-12-19T20:23:31.101Z,101500.59
2023-12-19T20:25:59.455Z,101521.22
2023-12-19T20:28:27.346Z,101506.19
2023-12-19T20:30:57.243Z,101513.97
2023-12-19T20:33:25.269Z,101520.25
2023-12-19T20:35:53.387Z,101508.28
2023-12-19T20:38:21.872Z,101504.03
2023-12-19T20:40:49.989Z,101510.31
2023-12-19T20:43:17.896Z,101515.03
2023-12-19T20:45:47.104Z,101513.50
2023-12-19T20:48:16.880Z,101505.00
2023-12-19T20:50:45.144Z,101497.28
2023-12-19T20:53:13.510Z,101498.13
2023-12-19T20:55:42.615Z,101506.31
2023-12-19T20:58:10.661Z,101497.84
2023-12-19T21:00:39.915Z,101505.66
2023-12-19T21:03:07.826Z,101505.31
2023-12-19T21:05:37.115Z,101508.84
2023-12-19T21:08:05.370Z,101514.34
2023-12-19T21:10:33.182Z,101503.13
2023-12-19T21:13:01.699Z,101493.50
2023-12-19T21:15:31.756Z,101503.69
2023-12-19T21:18:00.342Z,101497.56
2023-12-19T21:20:28.278Z,101504.16
2023-12-19T21:22:57.536Z,101505.00
2023-12-19T21:25:25.570Z,101493.44
2023-12-19T21:27:53.784Z,101505.91
2023-12-19T21:30:21.788Z,101509.09
2023-12-19T21:32:50.143Z,101504.91
2023-12-19T21:35:18.687Z,101507.28
2023-12-19T21:37:46.663Z,101507.75
2023-12-19T21:40:16.266Z,101488.81
2023-12-19T21:42:44.551Z,101491.94
2023-12-19T21:45:12.549Z,101496.66
2023-12-19T21:47:40.494Z,101495.56
2023-12-19T21:50:09.175Z,101480.06
2023-12-19T21:52:37.144Z,101495.69
2023-12-19T21:55:06.440Z,101492.59
2023-12-19T21:57:36.022Z,101493.84
2023-12-19T22:00:04.045Z,101490.78
2023-12-19T22:02:32.778Z,101499.31
2023-12-19T22:05:00.913Z,101498.19
2023-12-19T22:07:29.602Z,101500.97
2023-12-19T22:10:02.324Z,101496.38
2023-12-19T22:12:31.636Z,101496.44
2023-12-19T22:15:01.045Z,101502.25
2023-12-19T22:17:28.927Z,101500.38
2023-12-19T22:19:57.207Z,101513.97
2023-12-19T22:22:25.413Z,101505.91
2023-12-19T22:24:53.372Z,101496.66
2023-12-19T22:27:21.228Z,101491.72
2023-12-19T22:29:49.384Z,101502.59
2023-12-19T22:32:18.708Z,101501.94
2023-12-19T22:34:46.574Z,101493.84
2023-12-19T22:37:14.697Z,101486.16
2023-12-19T22:39:42.682Z,101483.50
2023-12-19T22:42:10.505Z,101480.06
2023-12-19T22:44:38.407Z,101484.38
2023-12-19T22:47:06.290Z,101491.00
2023-12-19T22:49:35.561Z,101491.81
2023-12-19T22:52:03.482Z,101485.25
2023-12-19T22:54:33.511Z,101488.81
2023-12-19T22:57:03.492Z,101485.72
2023-12-19T22:59:31.372Z,101488.50
2023-12-19T23:01:59.319Z,101488.94
2023-12-19T23:04:27.693Z,101480.47
2023-12-19T23:06:57.089Z,101491.34
2023-12-19T23:09:25.178Z,101484.78
2023-12-19T23:11:53.000Z,101488.25
2023-12-19T23:14:23.325Z,101485.94
2023-12-19T23:16:51.345Z,101486.31
2023-12-19T23:19:19.369Z,101499.84
2023-12-19T23:21:47.290Z,101498.34
2023-12-19T23:24:16.515Z,101487.50
2023-12-19T23:26:44.357Z,101490.97
2023-12-19T23:29:12.517Z,101486.31
2023-12-19T23:31:42.614Z,101496.00
2023-12-19T23:34:12.017Z,101499.47
2023-12-19T23:36:40.179Z,101497.13
2023-12-19T23:39:09.071Z,101490.13
2023-12-19T23:41:38.495Z,101486.66
2023-12-19T23:44:06.552Z,101482.75
2023-12-19T23:46:34.532Z,101490.13
2023-12-19T23:49:02.632Z,101495.53
2023-12-19T23:51:30.528Z,101494.00
2023-12-19T23:53:58.374Z,101488.22
2023-12-19T23:56:26.242Z,101492.84
2023-12-19T23:58:55.458Z,101491.72
